createdAt,value
2023-05-05T00:01:03.561Z,93.00
2023-05-05T00:02:35.881Z,93.20
2023-05-05T00:04:07.995Z,93.34
2023-05-05T00:05:40.100Z,93.59
2023-05-05T00:07:12.061Z,93.47
2023-05-05T00:08:44.182Z,93.50
2023-05-05T00:10:16.272Z,93.42
2023-05-05T00:11:48.316Z,93.82
2023-05-05T00:13:21.365Z,93.93
2023-05-05T00:14:53.491Z,93.95
2023-05-05T00:16:25.645Z,93.84
2023-05-05T00:17:57.782Z,93.98
2023-05-05T00:19:30.013Z,94.14
2023-05-05T00:21:02.228Z,94.45
2023-05-05T00:22:34.249Z,94.41
2023-05-05T00:24:06.588Z,94.48
2023-05-05T00:25:41.515Z,94.44
2023-05-05T00:27:13.565Z,94.59
2023-05-05T00:28:45.617Z,94.42
2023-05-05T00:30:17.749Z,94.65
2023-05-05T00:31:52.619Z,94.49
2023-05-05T00:33:24.894Z,94.77
2023-05-05T00:34:57.186Z,94.77
2023-05-05T00:36:29.365Z,94.76
2023-05-05T00:38:01.465Z,94.83
2023-05-05T00:39:33.688Z,94.99
2023-05-05T00:41:05.822Z,94.93
2023-05-05T00:42:40.910Z,94.78
2023-05-05T00:44:13.138Z,94.86
2023-05-05T00:45:48.205Z,95.08
2023-05-05T00:47:20.385Z,94.94
2023-05-05T00:48:52.851Z,95.25
2023-05-05T00:50:29.892Z,95.13
2023-05-05T00:52:02.642Z,95.39
2023-05-05T00:53:35.256Z,95.21
2023-05-05T00:55:07.645Z,95.39
2023-05-05T00:56:39.748Z,94.89
2023-05-05T00:58:11.744Z,95.19
2023-05-05T00:59:44.121Z,95.42
2023-05-05T01:01:16.941Z,95.19
2023-05-05T01:02:49.218Z,95.46
2023-05-05T01:04:21.636Z,95.64
2023-05-05T01:06:06.701Z,95.48
2023-05-05T01:07:42.152Z,95.54
2023-05-05T01:09:39.125Z,95.65
2023-05-05T01:11:18.772Z,95.54
2023-05-05T01:12:59.559Z,95.54
2023-05-05T01:14:50.742Z,95.37
2023-05-05T01:16:26.558Z,95.72
2023-05-05T01:18:05.634Z,95.53
2023-05-05T01:19:43.877Z,95.68
2023-05-05T01:21:20.780Z,95.75
2023-05-05T01:22:58.786Z,95.79
2023-05-05T01:24:50.906Z,95.85
2023-05-05T01:26:31.697Z,95.97
2023-05-05T01:28:22.248Z,96.17
2023-05-05T01:30:36.946Z,96.29
2023-05-05T01:32:11.620Z,96.25
2023-05-05T01:33:49.948Z,96.37
2023-05-05T01:35:35.924Z,96.29
2023-05-05T01:37:10.832Z,96.39
2023-05-05T01:38:44.648Z,96.33
2023-05-05T01:40:21.760Z,96.48
2023-05-05T01:41:59.277Z,96.42
2023-05-05T01:43:34.996Z,96.27
2023-05-05T01:45:11.577Z,96.39
2023-05-05T01:46:43.654Z,96.25
2023-05-05T01:48:17.862Z,96.53
2023-05-05T01:49:50.777Z,96.47
2023-05-05T01:51:23.961Z,96.65
2023-05-05T01:52:57.093Z,96.70
2023-05-05T01:54:29.298Z,96.51
2023-05-05T01:56:02.716Z,96.51
2023-05-05T01:57:34.654Z,96.23
2023-05-05T01:59:07.529Z,96.54
2023-05-05T02:00:39.893Z,96.57
2023-05-05T02:02:16.635Z,96.67
2023-05-05T02:03:49.946Z,96.80
2023-05-05T02:05:23.249Z,96.62
2023-05-05T02:06:56.720Z,96.86
2023-05-05T02:08:28.610Z,96.70
2023-05-05T02:10:02.853Z,96.96
2023-05-05T02:11:35.138Z,96.75
2023-05-05T02:13:08.026Z,96.84
2023-05-05T02:14:41.284Z,96.86
2023-05-05T02:16:13.726Z,96.84
2023-05-05T02:17:49.090Z,96.72
2023-05-05T02:19:23.610Z,96.88
2023-05-05T02:20:55.886Z,96.92
2023-05-05T02:22:28.319Z,96.96
2023-05-05T02:24:01.008Z,97.17
2023-05-05T02:25:39.096Z,97.12
2023-05-05T02:27:11.726Z,97.10
2023-05-05T02:29:07.743Z,96.97
2023-05-05T02:30:40.592Z,97.04
2023-05-05T02:32:18.981Z,97.00
2023-05-05T02:33:52.285Z,97.15
2023-05-05T02:35:27.988Z,97.10
2023-05-05T02:37:01.530Z,97.14
2023-05-05T02:38:34.151Z,97.06
2023-05-05T02:40:08.953Z,96.97
2023-05-05T02:41:42.024Z,97.05
2023-05-05T02:43:17.536Z,97.33
2023-05-05T02:44:50.699Z,96.80
2023-05-05T02:46:22.838Z,96.80
2023-05-05T02:47:54.990Z,96.71
2023-05-05T02:49:27.490Z,97.10
2023-05-05T02:50:59.662Z,96.87
2023-05-05T02:52:35.045Z,96.86
2023-05-05T02:54:07.407Z,97.01
2023-05-05T02:55:54.588Z,96.84
2023-05-05T02:57:33.445Z,96.99
2023-05-05T02:59:28.370Z,96.93
2023-05-05T03:01:21.197Z,96.93
2023-05-05T03:03:02.237Z,97.22
2023-05-05T03:04:47.795Z,97.03
2023-05-05T03:06:21.867Z,97.10
2023-05-05T03:08:03.873Z,96.93
2023-05-05T03:09:42.476Z,96.94
2023-05-05T03:11:43.398Z,96.94
2023-05-05T03:13:18.473Z,96.95
2023-05-05T03:14:52.682Z,96.83
2023-05-05T03:16:25.269Z,96.75
2023-05-05T03:17:58.852Z,96.86
2023-05-05T03:19:31.932Z,96.97
2023-05-05T03:21:09.144Z,97.10
2023-05-05T03:22:41.284Z,96.96
2023-05-05T03:24:17.999Z,97.15
2023-05-05T03:25:50.570Z,97.07
2023-05-05T03:27:22.820Z,97.30
2023-05-05T03:28:54.932Z,97.24
2023-05-05T03:30:27.191Z,97.32
2023-05-05T03:31:59.742Z,97.25
2023-05-05T03:33:31.885Z,97.23
2023-05-05T03:35:04.173Z,97.31
2023-05-05T03:36:36.692Z,97.17
2023-05-05T03:38:08.826Z,97.28
2023-05-05T03:39:40.924Z,97.61
2023-05-05T03:41:16.089Z,97.35
2023-05-05T03:42:48.264Z,97.30
2023-05-05T03:44:20.350Z,97.57
2023-05-05T03:45:52.485Z,97.08
2023-05-05T03:47:25.055Z,97.37
2023-05-05T03:49:00.188Z,97.49
2023-05-05T03:50:32.294Z,97.44
2023-05-05T03:52:04.695Z,97.75
2023-05-05T03:53:36.808Z,97.55
2023-05-05T03:55:09.300Z,97.48
2023-05-05T03:56:41.414Z,97.66
2023-05-05T03:58:14.828Z,97.55
2023-05-05T03:59:46.999Z,97.39
2023-05-05T04:01:19.118Z,97.57
2023-05-05T04:02:51.645Z,97.51
2023-05-05T04:04:23.903Z,97.38
2023-05-05T04:05:56.331Z,97.58
2023-05-05T04:07:28.450Z,97.67
2023-05-05T04:09:00.551Z,97.50
2023-05-05T04:10:32.774Z,97.77
2023-05-05T04:12:05.361Z,97.46
2023-05-05T04:13:37.464Z,97.81
2023-05-05T04:15:10.189Z,98.05
2023-05-05T04:16:42.464Z,97.75
2023-05-05T04:18:14.667Z,97.95
2023-05-05T04:19:46.731Z,97.71
2023-05-05T04:21:18.887Z,97.82
2023-05-05T04:22:52.716Z,97.42
2023-05-05T04:24:25.500Z,97.50
2023-05-05T04:25:57.946Z,97.75
2023-05-05T04:27:30.935Z,97.70
2023-05-05T04:29:03.110Z,97.50
2023-05-05T04:30:35.177Z,97.61
2023-05-05T04:32:07.247Z,97.17
2023-05-05T04:33:39.335Z,97.53
2023-05-05T04:35:11.495Z,97.79
2023-05-05T04:36:43.680Z,97.86
2023-05-05T04:38:15.941Z,97.65
2023-05-05T04:39:48.082Z,97.55
2023-05-05T04:42:53.260Z,97.56
2023-05-05T04:44:25.358Z,97.58
2023-05-05T04:45:57.469Z,97.62
2023-05-05T04:47:29.725Z,97.65
2023-05-05T04:49:02.360Z,97.73
2023-05-05T04:50:34.426Z,97.67
2023-05-05T04:52:07.608Z,97.64
2023-05-05T04:53:39.969Z,97.52
2023-05-05T04:55:12.166Z,97.62
2023-05-05T04:56:44.297Z,97.35
2023-05-05T04:58:16.468Z,97.38
2023-05-05T04:59:48.619Z,97.44
2023-05-05T05:01:20.815Z,97.44
2023-05-05T05:02:53.615Z,97.59
2023-05-05T05:04:27.527Z,97.35
2023-05-05T05:05:59.634Z,97.58
2023-05-05T05:07:31.774Z,97.33
2023-05-05T05:09:04.209Z,97.60
2023-05-05T05:10:36.934Z,97.57
2023-05-05T05:12:10.181Z,97.37
2023-05-05T05:13:42.260Z,97.19
2023-05-05T05:15:14.418Z,97.06
2023-05-05T05:16:46.612Z,97.06
2023-05-05T05:18:18.774Z,96.96
2023-05-05T05:19:50.854Z,96.99
2023-05-05T05:21:22.993Z,97.02
2023-05-05T05:22:55.154Z,97.05
2023-05-05T05:24:27.318Z,96.94
2023-05-05T05:25:59.527Z,97.19
2023-05-05T05:27:31.816Z,96.97
2023-05-05T05:29:04.624Z,96.92
2023-05-05T05:30:36.959Z,96.40
2023-05-05T05:32:09.270Z,96.40
2023-05-05T05:33:42.160Z,96.23
2023-05-05T05:35:14.258Z,96.03
2023-05-05T05:36:46.301Z,96.10
2023-05-05T05:38:18.478Z,96.08
2023-05-05T05:39:53.613Z,95.70
2023-05-05T05:41:25.824Z,95.68
2023-05-05T05:42:57.916Z,95.81
2023-05-05T05:44:30.078Z,95.51
2023-05-05T05:46:02.269Z,95.32
2023-05-05T05:47:34.355Z,95.41
2023-05-05T05:49:06.662Z,95.24
2023-05-05T05:50:38.795Z,95.33
2023-05-05T05:52:11.076Z,95.04
2023-05-05T05:53:43.140Z,95.00
2023-05-05T05:55:15.234Z,94.69
2023-05-05T05:56:47.332Z,94.73
2023-05-05T05:58:19.804Z,94.54
2023-05-05T05:59:54.305Z,94.32
2023-05-05T06:01:26.451Z,93.85
2023-05-05T06:02:58.672Z,93.82
2023-05-05T06:04:31.934Z,94.05
2023-05-05T06:06:04.217Z,93.78
2023-05-05T06:07:36.355Z,93.98
2023-05-05T06:09:08.636Z,93.69
2023-05-05T06:10:43.130Z,94.06
2023-05-05T06:12:15.228Z,93.85
2023-05-05T06:13:47.329Z,93.87
2023-05-05T06:15:19.412Z,94.02
2023-05-05T06:16:52.690Z,94.12
2023-05-05T06:18:24.961Z,94.20
2023-05-05T06:19:57.149Z,94.25
2023-05-05T06:21:29.336Z,94.68
2023-05-05T06:23:01.533Z,94.70
2023-05-05T06:24:33.715Z,94.47
2023-05-05T06:26:05.887Z,94.24
2023-05-05T06:27:38.209Z,93.99
2023-05-05T06:29:12.208Z,93.74
2023-05-05T06:30:44.711Z,93.71
2023-05-05T06:32:16.824Z,94.14
2023-05-05T06:33:48.846Z,94.52
2023-05-05T06:35:21.545Z,94.23
2023-05-05T06:36:53.699Z,94.27
2023-05-05T06:38:25.842Z,94.31
2023-05-05T06:39:58.061Z,94.17
2023-05-05T06:41:30.428Z,94.12
2023-05-05T06:43:05.139Z,94.13
2023-05-05T06:44:37.445Z,94.02
2023-05-05T06:46:09.507Z,93.73
2023-05-05T06:47:42.747Z,93.22
2023-05-05T06:49:14.865Z,92.52
2023-05-05T06:50:46.953Z,91.80
2023-05-05T06:52:19.035Z,91.14
2023-05-05T06:53:51.476Z,91.15
2023-05-05T06:55:24.095Z,90.77
2023-05-05T06:56:59.799Z,90.39
2023-05-05T06:58:32.133Z,90.24
2023-05-05T07:00:06.313Z,90.26
2023-05-05T07:01:38.429Z,89.83
2023-05-05T07:03:10.897Z,89.76
2023-05-05T07:04:44.147Z,89.19
2023-05-05T07:06:16.355Z,88.98
2023-05-05T07:07:55.525Z,88.89
2023-05-05T07:09:29.811Z,89.07
2023-05-05T07:11:01.957Z,88.66
2023-05-05T07:12:34.092Z,87.56
2023-05-05T07:14:06.679Z,87.26
2023-05-05T07:15:47.848Z,87.52
2023-05-05T07:17:19.963Z,87.12
2023-05-05T07:18:52.052Z,87.05
2023-05-05T07:20:24.588Z,86.88
2023-05-05T07:21:56.850Z,86.81
2023-05-05T07:23:28.978Z,86.90
2023-05-05T07:25:01.153Z,85.95
2023-05-05T07:26:33.354Z,85.35
2023-05-05T07:28:05.852Z,85.07
2023-05-05T13:36:30.443Z,70.05
2023-05-05T13:38:02.517Z,69.89
2023-05-05T13:39:34.704Z,69.16
2023-05-05T13:41:06.837Z,68.97
2023-05-05T13:42:39.101Z,67.37
2023-05-05T13:44:11.333Z,68.37
2023-05-05T13:45:43.418Z,67.11
2023-05-05T13:47:15.584Z,67.22
2023-05-05T13:48:47.785Z,67.69
2023-05-05T13:50:19.950Z,67.64
2023-05-05T13:51:52.146Z,68.00
2023-05-05T13:53:24.396Z,67.81
2023-05-05T13:54:56.524Z,68.23
2023-05-05T13:56:28.710Z,68.22
2023-05-05T13:58:00.965Z,67.81
2023-05-05T13:59:33.137Z,68.08
2023-05-05T14:01:05.458Z,67.75
2023-05-05T14:02:37.716Z,67.69
2023-05-05T14:04:09.881Z,68.09
2023-05-05T14:05:43.318Z,68.32
2023-05-05T14:07:15.418Z,68.02
2023-05-05T14:08:47.611Z,67.87
2023-05-05T14:10:19.723Z,68.06
2023-05-05T14:11:51.990Z,68.01
2023-05-05T14:13:24.178Z,67.70
2023-05-05T14:14:56.260Z,67.38
2023-05-05T14:16:28.445Z,67.75
2023-05-05T14:18:00.767Z,67.90
2023-05-05T14:19:32.996Z,67.62
2023-05-05T14:21:05.186Z,67.45
2023-05-05T14:22:37.709Z,67.42
2023-05-05T14:24:10.057Z,67.22
2023-05-05T14:25:43.128Z,67.54
2023-05-05T14:27:15.348Z,67.77
2023-05-05T14:28:49.723Z,67.48
2023-05-05T14:30:22.381Z,67.64
2023-05-05T14:31:54.617Z,67.85
2023-05-05T14:33:27.001Z,68.02
2023-05-05T14:34:59.068Z,67.66
2023-05-05T14:36:31.816Z,67.82
2023-05-05T14:38:04.008Z,68.94
2023-05-05T14:39:36.256Z,69.27
2023-05-05T14:41:08.476Z,68.71
2023-05-05T14:42:40.844Z,68.56
2023-05-05T14:44:13.200Z,68.92
2023-05-05T14:45:45.415Z,69.70
2023-05-05T14:47:17.640Z,68.28
2023-05-05T14:48:49.867Z,66.90
2023-05-05T14:50:22.263Z,64.99
2023-05-05T14:51:55.495Z,63.13
2023-05-05T14:53:29.056Z,62.89
2023-05-05T14:55:01.446Z,62.11
2023-05-05T14:56:33.667Z,61.84
2023-05-05T14:58:05.935Z,62.72
2023-05-05T14:59:38.089Z,62.67
2023-05-05T15:01:10.262Z,62.57
2023-05-05T15:02:42.517Z,62.96
2023-05-05T15:04:14.950Z,63.74
2023-05-05T15:05:47.134Z,64.30
2023-05-05T15:07:20.803Z,63.32
2023-05-05T15:08:53.100Z,64.20
2023-05-05T15:10:25.549Z,63.45
2023-05-05T15:11:57.844Z,65.21
2023-05-05T15:13:30.587Z,65.19
2023-05-05T15:15:02.865Z,64.74
2023-05-05T15:16:35.565Z,64.80
2023-05-05T15:18:08.004Z,65.04
2023-05-05T15:19:40.200Z,65.36
2023-05-05T15:21:12.503Z,65.43
2023-05-05T15:22:44.965Z,64.71
2023-05-05T15:24:17.205Z,65.17
2023-05-05T15:25:49.333Z,65.23
2023-05-05T15:27:21.651Z,65.65
2023-05-05T15:28:53.753Z,64.95
2023-05-05T15:30:26.040Z,64.65
2023-05-05T15:31:58.455Z,65.38
2023-05-05T15:33:34.098Z,66.39
2023-05-05T15:35:07.338Z,67.33
2023-05-05T15:36:39.519Z,66.80
2023-05-05T15:38:11.846Z,67.47
2023-05-05T15:39:44.113Z,67.96
2023-05-05T15:41:16.552Z,67.47
2023-05-05T15:42:50.258Z,67.23
2023-05-05T15:44:22.500Z,67.35
2023-05-05T15:45:55.095Z,67.77
2023-05-05T15:47:27.456Z,67.64
2023-05-05T15:48:59.759Z,67.79
2023-05-05T15:50:32.104Z,67.87
2023-05-05T15:52:04.321Z,67.85
2023-05-05T15:53:36.515Z,68.45
2023-05-05T15:55:09.707Z,69.05
2023-05-05T15:56:41.750Z,68.47
2023-05-05T15:58:14.057Z,68.73
2023-05-05T15:59:46.417Z,68.94
2023-05-05T16:01:18.764Z,69.24
2023-05-05T16:02:51.336Z,69.16
2023-05-05T16:04:23.725Z,69.02
2023-05-05T16:05:56.057Z,69.11
2023-05-05T16:07:28.314Z,69.22
2023-05-05T16:09:00.688Z,69.92
2023-05-05T16:10:32.874Z,70.16
2023-05-05T16:12:05.961Z,70.49
2023-05-05T16:13:39.582Z,70.33
2023-05-05T16:15:12.234Z,70.88
2023-05-05T16:16:44.533Z,70.91
2023-05-05T16:18:16.751Z,71.12
2023-05-05T16:19:51.858Z,71.43
2023-05-05T16:21:24.200Z,71.48
2023-05-05T16:22:56.434Z,71.83
2023-05-05T16:24:28.704Z,72.10
2023-05-05T16:26:00.892Z,72.32
2023-05-05T16:27:33.091Z,72.43
2023-05-05T16:29:05.308Z,72.81
2023-05-05T16:30:38.576Z,72.65
2023-05-05T16:32:10.849Z,72.82
2023-05-05T16:33:44.161Z,72.89
2023-05-05T16:35:16.188Z,72.72
2023-05-05T16:36:48.425Z,73.14
2023-05-05T16:38:20.758Z,73.24
2023-05-05T16:39:53.030Z,72.98
2023-05-05T16:41:26.431Z,73.38
2023-05-05T16:43:01.560Z,73.57
2023-05-05T16:44:33.798Z,74.08
2023-05-05T16:46:07.105Z,73.95
2023-05-05T16:47:39.208Z,74.17
2023-05-05T16:49:11.539Z,74.06
2023-05-05T16:50:43.838Z,74.27
2023-05-05T16:52:16.211Z,74.04
2023-05-05T16:53:49.131Z,74.12
2023-05-05T16:55:21.559Z,74.55
2023-05-05T16:56:54.292Z,74.49
2023-05-05T16:58:26.698Z,74.43
2023-05-05T16:59:58.869Z,74.57
2023-05-05T17:01:31.107Z,75.04
2023-05-05T17:03:03.598Z,75.44
2023-05-05T17:04:35.830Z,75.88
2023-05-05T17:06:08.086Z,76.24
2023-05-05T17:07:40.772Z,76.61
2023-05-05T17:09:13.031Z,76.46
2023-05-05T17:10:45.899Z,76.69
2023-05-05T17:12:18.172Z,76.77
2023-05-05T17:13:50.472Z,76.80
2023-05-05T17:15:22.777Z,76.78
2023-05-05T17:16:55.043Z,77.33
2023-05-05T17:18:27.364Z,77.33
2023-05-05T17:19:59.777Z,77.89
2023-05-05T17:21:32.044Z,78.29
2023-05-05T17:23:04.312Z,78.89
2023-05-05T17:24:36.900Z,79.14
2023-05-05T17:26:09.138Z,79.21
2023-05-05T17:27:42.189Z,79.05
2023-05-05T17:29:15.590Z,79.00
2023-05-05T17:30:47.636Z,79.05
2023-05-05T17:32:19.850Z,79.02
2023-05-05T17:33:52.052Z,79.04
2023-05-05T17:35:24.344Z,79.29
2023-05-05T17:36:56.920Z,79.49
2023-05-05T17:38:29.241Z,79.76
2023-05-05T17:40:01.432Z,79.91
2023-05-05T17:41:33.851Z,79.88
2023-05-05T17:43:06.097Z,79.79
2023-05-05T17:44:38.378Z,79.97
2023-05-05T17:46:10.588Z,79.95
2023-05-05T17:47:43.040Z,80.14
2023-05-05T17:50:48.088Z,81.42
2023-05-05T17:52:21.138Z,81.94
2023-05-05T17:53:53.685Z,82.35
2023-05-05T17:55:26.285Z,82.23
2023-05-05T17:57:00.049Z,82.33
2023-05-05T17:58:32.221Z,82.31
2023-05-05T18:00:06.159Z,82.27
2023-05-05T18:01:41.293Z,82.44
2023-05-05T18:03:13.880Z,82.36
2023-05-05T18:04:46.985Z,82.64
2023-05-05T18:06:19.317Z,82.96
2023-05-05T18:07:51.479Z,82.65
2023-05-05T18:09:23.927Z,82.48
2023-05-05T18:10:56.176Z,82.81
2023-05-05T18:12:28.550Z,83.54
2023-05-05T18:14:00.926Z,83.82
2023-05-05T18:15:33.191Z,84.37
2023-05-05T18:17:05.559Z,84.62
2023-05-05T18:18:37.723Z,85.03
2023-05-05T18:20:10.648Z,85.41
2023-05-05T18:21:43.178Z,85.49
2023-05-05T18:23:15.363Z,85.70
2023-05-05T18:24:47.552Z,85.89
2023-05-05T18:26:19.874Z,85.88
2023-05-05T18:27:52.178Z,85.70
2023-05-05T18:29:24.480Z,85.79
2023-05-05T18:30:56.568Z,85.82
2023-05-05T18:32:28.742Z,85.46
2023-05-05T18:34:00.963Z,85.43
2023-05-05T18:35:33.378Z,85.52
2023-05-05T18:37:05.634Z,85.42
2023-05-05T18:38:37.815Z,85.36
2023-05-05T18:40:10.675Z,85.31
2023-05-05T18:41:42.806Z,85.51
2023-05-05T18:43:14.943Z,85.35
2023-05-05T18:44:47.363Z,85.35
2023-05-05T18:46:19.787Z,85.36
2023-05-05T18:47:51.869Z,85.65
2023-05-05T18:49:25.166Z,85.95
2023-05-05T18:51:04.188Z,86.03
2023-05-05T18:52:36.344Z,86.28
2023-05-05T18:54:08.622Z,86.44
2023-05-05T18:55:43.112Z,86.71
2023-05-05T18:57:15.256Z,86.68
2023-05-05T18:58:47.417Z,86.55
2023-05-05T19:00:21.230Z,86.49
2023-05-05T19:01:53.318Z,86.69
2023-05-05T19:03:25.528Z,87.07
2023-05-05T19:04:57.830Z,87.03
2023-05-05T19:06:30.271Z,87.49
2023-05-05T19:08:02.390Z,87.47
2023-05-05T19:09:34.560Z,87.64
2023-05-05T19:11:06.913Z,87.98
2023-05-05T19:12:39.194Z,87.88
2023-05-05T19:14:11.377Z,87.93
2023-05-05T19:15:43.463Z,88.27
2023-05-05T19:17:15.525Z,88.31
2023-05-05T19:18:47.744Z,88.60
2023-05-05T19:20:20.297Z,88.52
2023-05-05T19:21:52.410Z,88.63
2023-05-05T19:23:24.678Z,88.43
2023-05-05T19:24:56.948Z,88.52
2023-05-05T19:26:29.121Z,88.60
2023-05-05T19:28:01.450Z,88.50
2023-05-05T19:29:33.817Z,88.24
2023-05-05T19:31:06.100Z,87.98
2023-05-05T19:32:38.339Z,87.82
2023-05-05T19:34:10.530Z,87.49
2023-05-05T19:35:42.956Z,87.41
2023-05-05T19:37:15.104Z,86.98
2023-05-05T19:38:47.364Z,86.58
2023-05-05T19:40:19.534Z,86.66
2023-05-05T19:41:52.020Z,86.68
2023-05-05T19:43:24.171Z,86.76
2023-05-05T19:44:56.232Z,86.43
2023-05-05T19:46:28.478Z,86.27
2023-05-05T19:48:01.886Z,86.28
2023-05-05T19:49:33.883Z,86.46
2023-05-05T19:51:06.008Z,86.69
2023-05-05T19:52:38.755Z,86.76
2023-05-05T19:54:10.941Z,86.95
2023-05-05T19:55:43.138Z,87.01
2023-05-05T19:57:15.495Z,86.94
2023-05-05T19:58:57.823Z,86.83
2023-05-05T20:00:30.061Z,87.06
2023-05-05T20:02:02.127Z,87.10
2023-05-05T20:03:34.374Z,86.77
2023-05-05T20:05:07.131Z,86.61
2023-05-05T20:06:39.335Z,86.93
2023-05-05T20:08:11.443Z,86.79
2023-05-05T20:09:43.554Z,87.04
2023-05-05T20:11:17.270Z,87.16
2023-05-05T20:12:49.511Z,87.26
2023-05-05T20:14:21.756Z,87.76
2023-05-05T20:15:53.893Z,87.88
2023-05-05T20:17:26.689Z,87.98
2023-05-05T20:18:58.791Z,88.05
2023-05-05T20:20:30.980Z,88.11
2023-05-05T20:22:03.073Z,87.95
2023-05-05T20:23:35.419Z,87.60
2023-05-05T20:25:07.811Z,87.62
2023-05-05T20:26:39.906Z,87.85
2023-05-05T20:28:12.265Z,87.87
2023-05-05T20:29:44.354Z,88.10
2023-05-05T20:31:16.584Z,88.12
2023-05-05T20:32:48.718Z,88.35
2023-05-05T20:34:20.824Z,88.25
2023-05-05T20:35:52.929Z,87.70
2023-05-05T20:37:27.460Z,87.77
2023-05-05T20:38:59.506Z,87.41
2023-05-05T20:40:33.628Z,87.32
2023-05-05T20:42:05.826Z,87.17
2023-05-05T20:43:38.243Z,87.29
2023-05-05T20:45:11.676Z,87.51
2023-05-05T20:46:43.671Z,87.54
2023-05-05T20:48:15.950Z,87.81
2023-05-05T20:49:48.004Z,87.83
2023-05-05T20:51:20.654Z,88.14
2023-05-05T20:52:52.781Z,87.93
2023-05-05T20:54:24.945Z,88.02
2023-05-05T20:55:57.040Z,87.70
2023-05-05T20:57:29.089Z,87.73
2023-05-05T20:59:04.976Z,88.03
2023-05-05T21:00:37.490Z,88.03
2023-05-05T21:02:09.913Z,88.33
2023-05-05T21:03:41.997Z,88.39
2023-05-05T21:05:14.572Z,88.16
2023-05-05T21:06:47.625Z,87.98
2023-05-05T21:08:19.741Z,88.08
2023-05-05T21:09:51.875Z,87.72
2023-05-05T21:11:23.955Z,88.12
2023-05-05T21:12:56.240Z,88.06
2023-05-05T21:14:29.680Z,88.13
2023-05-05T21:16:01.579Z,87.99
2023-05-05T21:17:33.853Z,88.28
2023-05-05T21:19:06.259Z,88.35
2023-05-05T21:20:38.400Z,88.40
2023-05-05T21:22:10.453Z,88.43
2023-05-05T21:23:42.495Z,88.54
2023-05-05T21:25:16.305Z,88.63
2023-05-05T21:26:48.399Z,88.57
2023-05-05T21:28:20.491Z,88.70
2023-05-05T21:29:52.592Z,88.64
2023-05-05T21:31:24.740Z,89.04
2023-05-05T21:32:57.511Z,89.21
2023-05-05T21:34:29.612Z,88.89
2023-05-05T21:36:01.763Z,89.11
2023-05-05T21:37:34.223Z,89.17
2023-05-05T21:39:06.616Z,88.84
2023-05-05T21:40:38.702Z,89.15
2023-05-05T21:42:10.961Z,88.91
2023-05-05T21:43:43.058Z,88.39
2023-05-05T21:45:15.208Z,88.39
2023-05-05T21:46:47.379Z,88.50
2023-05-05T21:48:19.549Z,88.36
2023-05-05T21:49:51.653Z,88.44
2023-05-05T21:52:56.487Z,88.69
2023-05-05T21:54:28.495Z,88.60
2023-05-05T21:56:00.687Z,88.38
2023-05-05T21:57:32.739Z,88.21
2023-05-05T21:59:05.933Z,88.29
2023-05-05T22:00:38.009Z,88.51
2023-05-05T22:02:10.197Z,88.61
2023-05-05T22:03:43.979Z,88.76
2023-05-05T22:05:16.176Z,88.78
2023-05-05T22:06:48.218Z,88.76
2023-05-05T22:08:20.366Z,88.58
2023-05-05T22:09:55.191Z,88.39
2023-05-05T22:11:27.361Z,88.67
2023-05-05T22:12:59.437Z,88.65
2023-05-05T22:14:31.617Z,88.98
2023-05-05T22:16:03.650Z,89.05
2023-05-05T22:17:36.528Z,89.29
2023-05-05T22:19:08.624Z,89.44
2023-05-05T22:20:40.902Z,89.32
2023-05-05T22:22:13.013Z,89.33
2023-05-05T22:23:46.434Z,89.29
2023-05-05T22:25:18.478Z,89.04
2023-05-05T22:26:50.924Z,88.69
2023-05-05T22:28:23.547Z,88.57
2023-05-05T22:29:55.779Z,88.55
2023-05-05T22:31:27.898Z,88.64
2023-05-05T22:33:00.162Z,88.42
2023-05-05T22:34:32.257Z,88.22
2023-05-05T22:36:04.627Z,88.24
2023-05-05T22:37:36.831Z,88.21
2023-05-05T22:39:08.949Z,88.14
2023-05-05T22:40:41.209Z,88.02
2023-05-05T22:42:13.314Z,88.21
2023-05-05T22:43:45.487Z,88.16
2023-05-05T22:45:17.579Z,88.29
2023-05-05T22:46:49.753Z,88.40
2023-05-05T22:48:22.075Z,88.73
2023-05-05T22:49:54.273Z,88.53
2023-05-05T22:51:26.414Z,88.58
2023-05-05T22:52:58.476Z,88.81
2023-05-05T22:54:30.549Z,88.92
2023-05-05T22:56:02.628Z,88.48
2023-05-05T22:57:37.576Z,88.26
2023-05-05T22:59:09.697Z,88.50
2023-05-05T23:00:42.243Z,88.74
2023-05-05T23:02:15.076Z,88.91
2023-05-05T23:03:47.161Z,88.66
2023-05-05T23:05:19.339Z,89.01
2023-05-05T23:06:52.316Z,88.72
2023-05-05T23:08:24.526Z,88.42
2023-05-05T23:09:56.631Z,88.42
2023-05-05T23:11:31.626Z,88.79
2023-05-05T23:13:03.762Z,88.55
2023-05-05T23:14:36.457Z,88.48
2023-05-05T23:16:11.821Z,88.56
2023-05-05T23:17:44.021Z,88.26
2023-05-05T23:19:16.064Z,88.28
2023-05-05T23:20:48.049Z,88.17
2023-05-05T23:22:20.101Z,88.26
2023-05-05T23:23:52.262Z,88.63
2023-05-05T23:25:24.377Z,88.26
2023-05-05T23:26:59.798Z,88.12
2023-05-05T23:28:31.902Z,88.48
2023-05-05T23:30:04.197Z,88.60
2023-05-05T23:31:36.304Z,88.45
2023-05-05T23:33:08.441Z,88.72
2023-05-05T23:34:40.522Z,88.68
2023-05-05T23:36:12.572Z,88.75
2023-05-05T23:37:44.697Z,88.76
2023-05-05T23:39:16.952Z,88.97
2023-05-05T23:40:49.184Z,89.14
2023-05-05T23:42:21.259Z,89.19
2023-05-05T23:43:53.388Z,89.08
2023-05-05T23:45:25.510Z,89.27
2023-05-05T23:46:57.552Z,89.12
2023-05-05T23:48:29.613Z,89.37
2023-05-05T23:50:01.699Z,89.38
2023-05-05T23:51:33.828Z,89.48
2023-05-05T23:53:06.007Z,89.28
2023-05-05T23:54:38.039Z,89.33
2023-05-05T23:56:10.201Z,89.37
2023-05-05T23:57:42.217Z,89.04
2023-05-05T23:59:14.326Z,89.21
